sensor_id;sensor_type;location;lat;lon;timestamp;P1;durP1;ratioP1;P2;durP2;ratioP2
5650;SDS011;40241;52.684;9.758;2023-11-19T00:00:05;0.77;;;0.77;;
5650;SDS011;40241;52.684;9.758;2023-11-19T00:02:36;4.77;;;0.90;;
5650;SDS011;40241;52.684;9.758;2023-11-19T00:05:01;2.80;;;0.70;;
5650;SDS011;40241;52.684;9.758;2023-11-19T00:07:26;0.70;;;0.67;;
5650;SDS011;40241;52.684;9.758;2023-11-19T00:09:51;0.97;;;0.70;;
5650;SDS011;40241;52.684;9.758;2023-11-19T00:12:17;2.60;;;1.00;;
5650;SDS011;40241;52.684;9.758;2023-11-19T00:14:43;2.60;;;0.60;;
5650;SDS011;40241;52.684;9.758;2023-11-19T00:17:09;0.70;;;0.70;;
5650;SDS011;40241;52.684;9.758;2023-11-19T00:19:34;1.50;;;0.73;;
5650;SDS011;40241;52.684;9.758;2023-11-19T00:22:00;0.80;;;0.80;;
5650;SDS011;40241;52.684;9.758;2023-11-19T00:24:27;1.00;;;0.80;;
5650;SDS011;40241;52.684;9.758;2023-11-19T00:26:53;1.47;;;0.80;;
5650;SDS011;40241;52.684;9.758;2023-11-19T00:29:18;0.80;;;0.80;;
5650;SDS011;40241;52.684;9.758;2023-11-19T00:31:45;1.17;;;0.70;;
5650;SDS011;40241;52.684;9.758;2023-11-19T00:34:10;0.70;;;0.70;;
5650;SDS011;40241;52.684;9.758;2023-11-19T00:36:36;1.60;;;0.87;;
5650;SDS011;40241;52.684;9.758;2023-11-19T00:39:01;3.97;;;0.73;;
5650;SDS011;40241;52.684;9.758;2023-11-19T00:41:26;0.80;;;0.73;;
5650;SDS011;40241;52.684;9.758;2023-11-19T00:43:52;2.23;;;0.80;;
5650;SDS011;40241;52.684;9.758;2023-11-19T00:46:17;1.00;;;1.00;;
5650;SDS011;40241;52.684;9.758;2023-11-19T00:48:42;1.23;;;0.87;;
5650;SDS011;40241;52.684;9.758;2023-11-19T00:51:08;1.00;;;0.90;;
5650;SDS011;40241;52.684;9.758;2023-11-19T00:53:33;1.20;;;1.10;;
5650;SDS011;40241;52.684;9.758;2023-11-19T00:55:59;2.30;;;0.90;;
5650;SDS011;40241;52.684;9.758;2023-11-19T00:58:25;1.13;;;0.90;;
5650;SDS011;40241;52.684;9.758;2023-11-19T01:00:50;1.10;;;1.00;;
5650;SDS011;40241;52.684;9.758;2023-11-19T01:03:15;1.77;;;1.23;;
5650;SDS011;40241;52.684;9.758;2023-11-19T01:05:41;2.63;;;1.33;;
5650;SDS011;40241;52.684;9.758;2023-11-19T01:08:06;1.10;;;1.10;;
5650;SDS011;40241;52.684;9.758;2023-11-19T01:10:33;2.03;;;1.03;;
5650;SDS011;40241;52.684;9.758;2023-11-19T01:12:58;1.17;;;0.97;;
5650;SDS011;40241;52.684;9.758;2023-11-19T01:15:24;1.20;;;1.10;;
5650;SDS011;40241;52.684;9.758;2023-11-19T01:17:50;1.37;;;1.20;;
5650;SDS011;40241;52.684;9.758;2023-11-19T01:20:15;1.30;;;1.07;;
5650;SDS011;40241;52.684;9.758;2023-11-19T01:22:40;1.03;;;0.97;;
5650;SDS011;40241;52.684;9.758;2023-11-19T01:25:06;1.53;;;1.10;;
5650;SDS011;40241;52.684;9.758;2023-11-19T01:27:32;1.90;;;1.20;;
5650;SDS011;40241;52.684;9.758;2023-11-19T01:29:59;5.70;;;1.10;;
5650;SDS011;40241;52.684;9.758;2023-11-19T01:32:28;1.40;;;1.30;;
5650;SDS011;40241;52.684;9.758;2023-11-19T01:34:54;1.10;;;1.00;;
5650;SDS011;40241;52.684;9.758;2023-11-19T01:37:19;0.83;;;0.83;;
5650;SDS011;40241;52.684;9.758;2023-11-19T01:39:44;5.53;;;1.23;;
5650;SDS011;40241;52.684;9.758;2023-11-19T01:42:10;5.03;;;1.60;;
5650;SDS011;40241;52.684;9.758;2023-11-19T01:44:38;1.20;;;1.17;;
5650;SDS011;40241;52.684;9.758;2023-11-19T01:47:03;1.27;;;1.27;;
5650;SDS011;40241;52.684;9.758;2023-11-19T01:49:30;1.70;;;1.07;;
5650;SDS011;40241;52.684;9.758;2023-11-19T01:51:58;2.20;;;0.93;;
5650;SDS011;40241;52.684;9.758;2023-11-19T01:54:24;1.40;;;1.30;;
5650;SDS011;40241;52.684;9.758;2023-11-19T01:56:50;2.20;;;1.30;;
5650;SDS011;40241;52.684;9.758;2023-11-19T01:59:17;2.70;;;1.10;;
5650;SDS011;40241;52.684;9.758;2023-11-19T02:01:43;1.83;;;1.13;;
5650;SDS011;40241;52.684;9.758;2023-11-19T02:04:08;1.33;;;1.23;;
5650;SDS011;40241;52.684;9.758;2023-11-19T02:06:34;1.30;;;1.20;;
5650;SDS011;40241;52.684;9.758;2023-11-19T02:09:04;1.63;;;1.40;;
5650;SDS011;40241;52.684;9.758;2023-11-19T02:11:32;1.10;;;1.10;;
5650;SDS011;40241;52.684;9.758;2023-11-19T02:13:59;1.40;;;1.30;;
5650;SDS011;40241;52.684;9.758;2023-11-19T02:16:25;1.33;;;1.23;;
5650;SDS011;40241;52.684;9.758;2023-11-19T02:18:50;1.57;;;1.30;;
5650;SDS011;40241;52.684;9.758;2023-11-19T02:21:15;1.67;;;1.57;;
5650;SDS011;40241;52.684;9.758;2023-11-19T02:23:42;1.30;;;1.30;;
5650;SDS011;40241;52.684;9.758;2023-11-19T02:29:12;1.73;;;1.10;;
5650;SDS011;40241;52.684;9.758;2023-11-19T02:31:38;2.30;;;1.00;;
5650;SDS011;40241;52.684;9.758;2023-11-19T02:34:03;1.53;;;1.27;;
5650;SDS011;40241;52.684;9.758;2023-11-19T02:36:29;1.37;;;1.10;;
5650;SDS011;40241;52.684;9.758;2023-11-19T02:38:54;0.93;;;0.93;;
5650;SDS011;40241;52.684;9.758;2023-11-19T02:41:20;2.90;;;1.30;;
5650;SDS011;40241;52.684;9.758;2023-11-19T02:43:45;1.27;;;1.17;;
5650;SDS011;40241;52.684;9.758;2023-11-19T02:46:13;1.30;;;1.20;;
5650;SDS011;40241;52.684;9.758;2023-11-19T02:48:39;1.50;;;1.40;;
5650;SDS011;40241;52.684;9.758;2023-11-19T02:51:04;1.37;;;1.27;;
5650;SDS011;40241;52.684;9.758;2023-11-19T02:53:31;1.23;;;0.90;;
5650;SDS011;40241;52.684;9.758;2023-11-19T02:55:56;3.63;;;1.27;;
5650;SDS011;40241;52.684;9.758;2023-11-19T02:58:43;2.50;;;1.20;;
5650;SDS011;40241;52.684;9.758;2023-11-19T03:01:10;4.33;;;1.10;;
5650;SDS011;40241;52.684;9.758;2023-11-19T03:03:44;1.57;;;1.10;;
5650;SDS011;40241;52.684;9.758;2023-11-19T03:06:18;1.07;;;0.90;;
5650;SDS011;40241;52.684;9.758;2023-11-19T03:08:44;2.00;;;0.90;;
5650;SDS011;40241;52.684;9.758;2023-11-19T03:11:09;0.83;;;0.83;;
5650;SDS011;40241;52.684;9.758;2023-11-19T03:13:35;1.53;;;0.90;;
5650;SDS011;40241;52.684;9.758;2023-11-19T03:16:00;1.00;;;1.00;;
5650;SDS011;40241;52.684;9.758;2023-11-19T03:18:25;0.97;;;0.73;;
5650;SDS011;40241;52.684;9.758;2023-11-19T03:20:51;0.60;;;0.50;;
5650;SDS011;40241;52.684;9.758;2023-11-19T03:23:17;0.73;;;0.70;;
5650;SDS011;40241;52.684;9.758;2023-11-19T03:25:42;0.70;;;0.70;;
5650;SDS011;40241;52.684;9.758;2023-11-19T03:28:08;0.60;;;0.60;;
5650;SDS011;40241;52.684;9.758;2023-11-19T03:30:34;1.03;;;0.93;;
5650;SDS011;40241;52.684;9.758;2023-11-19T03:32:59;0.87;;;0.70;;
5650;SDS011;40241;52.684;9.758;2023-11-19T03:35:26;0.70;;;0.70;;
5650;SDS011;40241;52.684;9.758;2023-11-19T03:37:53;1.57;;;1.00;;
5650;SDS011;40241;52.684;9.758;2023-11-19T03:40:18;5.07;;;0.87;;
5650;SDS011;40241;52.684;9.758;2023-11-19T03:42:44;1.10;;;0.70;;
5650;SDS011;40241;52.684;9.758;2023-11-19T03:45:10;0.80;;;0.73;;
5650;SDS011;40241;52.684;9.758;2023-11-19T03:47:35;1.20;;;1.10;;
5650;SDS011;40241;52.684;9.758;2023-11-19T03:50:01;1.70;;;1.17;;
5650;SDS011;40241;52.684;9.758;2023-11-19T03:52:27;2.23;;;1.00;;
5650;SDS011;40241;52.684;9.758;2023-11-19T03:54:54;1.00;;;0.90;;
5650;SDS011;40241;52.684;9.758;2023-11-19T03:57:20;2.63;;;1.23;;
5650;SDS011;40241;52.684;9.758;2023-11-19T03:59:46;4.20;;;1.50;;
5650;SDS011;40241;52.684;9.758;2023-11-19T04:02:12;2.03;;;1.33;;
5650;SDS011;40241;52.684;9.758;2023-11-19T04:04:37;1.70;;;1.53;;
5650;SDS011;40241;52.684;9.758;2023-11-19T04:07:03;2.70;;;1.57;;
5650;SDS011;40241;52.684;9.758;2023-11-19T04:09:29;1.97;;;1.67;;
5650;SDS011;40241;52.684;9.758;2023-11-19T04:11:55;1.70;;;1.60;;
5650;SDS011;40241;52.684;9.758;2023-11-19T04:14:21;1.77;;;1.63;;
5650;SDS011;40241;52.684;9.758;2023-11-19T04:16:46;2.50;;;2.40;;
5650;SDS011;40241;52.684;9.758;2023-11-19T04:19:12;2.30;;;2.20;;
5650;SDS011;40241;52.684;9.758;2023-11-19T04:21:39;2.30;;;2.20;;
5650;SDS011;40241;52.684;9.758;2023-11-19T04:24:06;2.57;;;2.40;;
5650;SDS011;40241;52.684;9.758;2023-11-19T04:26:32;2.97;;;2.77;;
5650;SDS011;40241;52.684;9.758;2023-11-19T04:28:57;4.30;;;3.13;;
5650;SDS011;40241;52.684;9.758;2023-11-19T04:31:23;2.90;;;2.70;;
5650;SDS011;40241;52.684;9.758;2023-11-19T04:33:54;3.67;;;3.37;;
5650;SDS011;40241;52.684;9.758;2023-11-19T04:36:20;5.67;;;3.23;;
5650;SDS011;40241;52.684;9.758;2023-11-19T04:38:49;4.40;;;3.47;;
5650;SDS011;40241;52.684;9.758;2023-11-19T04:41:14;3.70;;;3.47;;
5650;SDS011;40241;52.684;9.758;2023-11-19T04:43:39;3.97;;;3.60;;
5650;SDS011;40241;52.684;9.758;2023-11-19T04:46:05;3.70;;;3.40;;
5650;SDS011;40241;52.684;9.758;2023-11-19T04:48:30;3.80;;;3.50;;
5650;SDS011;40241;52.684;9.758;2023-11-19T04:50:55;5.13;;;3.70;;
5650;SDS011;40241;52.684;9.758;2023-11-19T04:53:21;3.73;;;3.43;;
5650;SDS011;40241;52.684;9.758;2023-11-19T04:55:46;5.00;;;4.57;;
5650;SDS011;40241;52.684;9.758;2023-11-19T04:58:12;6.70;;;4.13;;
5650;SDS011;40241;52.684;9.758;2023-11-19T05:00:38;6.23;;;3.73;;
5650;SDS011;40241;52.684;9.758;2023-11-19T05:03:03;3.93;;;3.53;;
5650;SDS011;40241;52.684;9.758;2023-11-19T05:05:28;5.53;;;4.30;;
5650;SDS011;40241;52.684;9.758;2023-11-19T05:07:54;4.37;;;3.97;;
5650;SDS011;40241;52.684;9.758;2023-11-19T05:10:20;6.00;;;4.43;;
5650;SDS011;40241;52.684;9.758;2023-11-19T05:12:45;6.53;;;4.47;;
5650;SDS011;40241;52.684;9.758;2023-11-19T05:15:11;7.90;;;4.60;;
5650;SDS011;40241;52.684;9.758;2023-11-19T05:17:37;5.90;;;5.20;;
5650;SDS011;40241;52.684;9.758;2023-11-19T05:20:02;5.50;;;4.20;;
5650;SDS011;40241;52.684;9.758;2023-11-19T05:22:28;6.63;;;4.90;;
5650;SDS011;40241;52.684;9.758;2023-11-19T05:24:53;6.47;;;5.30;;
5650;SDS011;40241;52.684;9.758;2023-11-19T05:27:19;7.90;;;5.10;;
5650;SDS011;40241;52.684;9.758;2023-11-19T05:29:44;10.93;;;5.80;;
5650;SDS011;40241;52.684;9.758;2023-11-19T05:32:10;7.17;;;5.00;;
5650;SDS011;40241;52.684;9.758;2023-11-19T05:34:36;5.53;;;4.43;;
5650;SDS011;40241;52.684;9.758;2023-11-19T05:37:01;6.60;;;5.40;;
5650;SDS011;40241;52.684;9.758;2023-11-19T05:39:28;5.83;;;4.67;;
5650;SDS011;40241;52.684;9.758;2023-11-19T05:41:53;8.93;;;5.57;;
5650;SDS011;40241;52.684;9.758;2023-11-19T05:44:18;8.47;;;4.80;;
5650;SDS011;40241;52.684;9.758;2023-11-19T05:46:44;7.97;;;5.60;;
5650;SDS011;40241;52.684;9.758;2023-11-19T05:49:10;6.43;;;5.17;;
5650;SDS011;40241;52.684;9.758;2023-11-19T05:51:39;8.93;;;5.73;;
5650;SDS011;40241;52.684;9.758;2023-11-19T05:54:08;8.30;;;5.63;;
5650;SDS011;40241;52.684;9.758;2023-11-19T05:56:35;9.23;;;5.80;;
5650;SDS011;40241;52.684;9.758;2023-11-19T05:59:01;9.57;;;6.57;;
5650;SDS011;40241;52.684;9.758;2023-11-19T06:01:28;10.17;;;5.27;;
5650;SDS011;40241;52.684;9.758;2023-11-19T06:03:56;7.37;;;5.87;;
5650;SDS011;40241;52.684;9.758;2023-11-19T06:06:21;8.53;;;6.07;;
5650;SDS011;40241;52.684;9.758;2023-11-19T06:08:47;9.43;;;6.10;;
5650;SDS011;40241;52.684;9.758;2023-11-19T06:11:12;7.50;;;5.40;;
5650;SDS011;40241;52.684;9.758;2023-11-19T06:13:43;6.40;;;5.70;;
5650;SDS011;40241;52.684;9.758;2023-11-19T06:16:09;6.57;;;5.90;;
5650;SDS011;40241;52.684;9.758;2023-11-19T06:18:35;8.67;;;5.87;;
5650;SDS011;40241;52.684;9.758;2023-11-19T06:21:01;9.10;;;5.47;;
5650;SDS011;40241;52.684;9.758;2023-11-19T06:23:27;10.93;;;5.43;;
5650;SDS011;40241;52.684;9.758;2023-11-19T06:25:52;10.80;;;6.70;;
5650;SDS011;40241;52.684;9.758;2023-11-19T06:28:18;6.97;;;5.70;;
5650;SDS011;40241;52.684;9.758;2023-11-19T06:30:43;9.07;;;5.60;;
5650;SDS011;40241;52.684;9.758;2023-11-19T06:33:08;7.73;;;5.27;;
5650;SDS011;40241;52.684;9.758;2023-11-19T06:35:34;7.20;;;4.93;;
5650;SDS011;40241;52.684;9.758;2023-11-19T06:38:04;10.77;;;4.40;;
5650;SDS011;40241;52.684;9.758;2023-11-19T06:40:29;11.20;;;4.90;;
5650;SDS011;40241;52.684;9.758;2023-11-19T06:42:56;6.13;;;5.50;;
5650;SDS011;40241;52.684;9.758;2023-11-19T06:45:21;14.90;;;5.10;;
5650;SDS011;40241;52.684;9.758;2023-11-19T06:47:46;7.83;;;4.30;;
5650;SDS011;40241;52.684;9.758;2023-11-19T06:50:12;10.10;;;4.00;;
5650;SDS011;40241;52.684;9.758;2023-11-19T06:52:37;8.90;;;4.00;;
5650;SDS011;40241;52.684;9.758;2023-11-19T06:55:03;6.80;;;4.13;;
5650;SDS011;40241;52.684;9.758;2023-11-19T06:57:29;10.87;;;4.13;;
5650;SDS011;40241;52.684;9.758;2023-11-19T06:59:57;11.97;;;4.43;;
5650;SDS011;40241;52.684;9.758;2023-11-19T07:02:22;15.97;;;3.70;;
5650;SDS011;40241;52.684;9.758;2023-11-19T07:04:48;18.90;;;3.87;;
5650;SDS011;40241;52.684;9.758;2023-11-19T07:07:13;11.73;;;4.03;;
5650;SDS011;40241;52.684;9.758;2023-11-19T07:09:39;12.70;;;4.00;;
5650;SDS011;40241;52.684;9.758;2023-11-19T07:12:05;15.33;;;3.83;;
5650;SDS011;40241;52.684;9.758;2023-11-19T07:14:30;13.80;;;3.53;;
5650;SDS011;40241;52.684;9.758;2023-11-19T07:16:56;9.90;;;3.20;;
5650;SDS011;40241;52.684;9.758;2023-11-19T07:19:22;16.20;;;4.17;;
5650;SDS011;40241;52.684;9.758;2023-11-19T07:21:47;7.00;;;2.90;;
5650;SDS011;40241;52.684;9.758;2023-11-19T07:24:12;7.73;;;2.90;;
5650;SDS011;40241;52.684;9.758;2023-11-19T07:26:45;14.43;;;3.67;;
5650;SDS011;40241;52.684;9.758;2023-11-19T07:29:12;12.17;;;3.20;;
5650;SDS011;40241;52.684;9.758;2023-11-19T07:31:37;11.60;;;3.30;;
5650;SDS011;40241;52.684;9.758;2023-11-19T07:34:03;9.87;;;3.50;;
5650;SDS011;40241;52.684;9.758;2023-11-19T07:36:30;10.97;;;3.43;;
5650;SDS011;40241;52.684;9.758;2023-11-19T07:38:56;12.87;;;3.77;;
5650;SDS011;40241;52.684;9.758;2023-11-19T07:41:22;9.60;;;3.03;;
5650;SDS011;40241;52.684;9.758;2023-11-19T07:43:48;15.50;;;3.37;;
5650;SDS011;40241;52.684;9.758;2023-11-19T07:46:14;11.63;;;3.00;;
5650;SDS011;40241;52.684;9.758;2023-11-19T07:48:40;7.77;;;3.13;;
5650;SDS011;40241;52.684;9.758;2023-11-19T07:51:06;13.70;;;3.33;;
5650;SDS011;40241;52.684;9.758;2023-11-19T07:53:31;14.37;;;3.47;;
5650;SDS011;40241;52.684;9.758;2023-11-19T07:55:58;13.87;;;2.87;;
5650;SDS011;40241;52.684;9.758;2023-11-19T07:58:24;11.80;;;3.30;;
5650;SDS011;40241;52.684;9.758;2023-11-19T08:00:50;16.03;;;3.80;;
5650;SDS011;40241;52.684;9.758;2023-11-19T08:03:17;15.97;;;3.23;;
5650;SDS011;40241;52.684;9.758;2023-11-19T08:05:43;12.27;;;2.83;;
5650;SDS011;40241;52.684;9.758;2023-11-19T08:08:09;9.10;;;3.53;;
5650;SDS011;40241;52.684;9.758;2023-11-19T08:10:35;10.23;;;3.43;;
5650;SDS011;40241;52.684;9.758;2023-11-19T08:13:00;14.40;;;3.70;;
5650;SDS011;40241;52.684;9.758;2023-11-19T08:15:26;11.80;;;2.80;;
5650;SDS011;40241;52.684;9.758;2023-11-19T08:17:51;12.33;;;3.80;;
5650;SDS011;40241;52.684;9.758;2023-11-19T08:20:16;11.60;;;3.20;;
5650;SDS011;40241;52.684;9.758;2023-11-19T08:22:42;9.60;;;2.77;;
5650;SDS011;40241;52.684;9.758;2023-11-19T08:25:07;11.63;;;3.03;;
5650;SDS011;40241;52.684;9.758;2023-11-19T08:27:33;18.83;;;3.50;;
5650;SDS011;40241;52.684;9.758;2023-11-19T08:29:58;16.10;;;3.03;;
5650;SDS011;40241;52.684;9.758;2023-11-19T08:32:24;12.83;;;3.40;;
5650;SDS011;40241;52.684;9.758;2023-11-19T08:34:50;16.50;;;3.60;;
5650;SDS011;40241;52.684;9.758;2023-11-19T08:37:16;19.03;;;4.40;;
5650;SDS011;40241;52.684;9.758;2023-11-19T08:39:45;16.70;;;3.90;;
5650;SDS011;40241;52.684;9.758;2023-11-19T08:42:11;20.43;;;4.60;;
5650;SDS011;40241;52.684;9.758;2023-11-19T08:44:37;22.00;;;4.10;;
5650;SDS011;40241;52.684;9.758;2023-11-19T08:47:02;15.70;;;3.80;;
5650;SDS011;40241;52.684;9.758;2023-11-19T08:49:28;17.43;;;3.50;;
5650;SDS011;40241;52.684;9.758;2023-11-19T08:51:53;10.27;;;2.90;;
5650;SDS011;40241;52.684;9.758;2023-11-19T08:54:18;14.47;;;3.37;;
5650;SDS011;40241;52.684;9.758;2023-11-19T08:56:45;16.73;;;3.87;;
5650;SDS011;40241;52.684;9.758;2023-11-19T08:59:10;24.13;;;4.07;;
5650;SDS011;40241;52.684;9.758;2023-11-19T09:01:36;14.17;;;3.67;;
5650;SDS011;40241;52.684;9.758;2023-11-19T09:04:01;14.77;;;4.23;;
5650;SDS011;40241;52.684;9.758;2023-11-19T09:06:26;22.67;;;4.20;;
5650;SDS011;40241;52.684;9.758;2023-11-19T09:08:52;18.67;;;3.73;;
5650;SDS011;40241;52.684;9.758;2023-11-19T09:11:17;15.63;;;3.63;;
5650;SDS011;40241;52.684;9.758;2023-11-19T09:13:43;13.40;;;3.57;;
5650;SDS011;40241;52.684;9.758;2023-11-19T09:16:11;11.07;;;3.40;;
5650;SDS011;40241;52.684;9.758;2023-11-19T09:18:37;14.43;;;3.23;;
5650;SDS011;40241;52.684;9.758;2023-11-19T09:21:02;15.13;;;3.43;;
5650;SDS011;40241;52.684;9.758;2023-11-19T09:23:28;15.50;;;3.80;;
5650;SDS011;40241;52.684;9.758;2023-11-19T09:25:55;15.63;;;3.40;;
5650;SDS011;40241;52.684;9.758;2023-11-19T09:28:21;20.40;;;3.80;;
5650;SDS011;40241;52.684;9.758;2023-11-19T09:30:46;13.20;;;3.00;;
5650;SDS011;40241;52.684;9.758;2023-11-19T09:33:11;11.00;;;3.10;;
5650;SDS011;40241;52.684;9.758;2023-11-19T09:35:37;15.00;;;3.10;;
5650;SDS011;40241;52.684;9.758;2023-11-19T09:38:02;15.43;;;3.37;;
5650;SDS011;40241;52.684;9.758;2023-11-19T09:40:30;21.23;;;3.60;;
5650;SDS011;40241;52.684;9.758;2023-11-19T09:42:56;11.47;;;3.30;;
5650;SDS011;40241;52.684;9.758;2023-11-19T09:45:22;11.70;;;2.80;;
5650;SDS011;40241;52.684;9.758;2023-11-19T09:47:51;10.20;;;2.70;;
5650;SDS011;40241;52.684;9.758;2023-11-19T09:50:18;17.43;;;3.40;;
5650;SDS011;40241;52.684;9.758;2023-11-19T09:52:45;16.30;;;4.20;;
5650;SDS011;40241;52.684;9.758;2023-11-19T09:55:11;20.60;;;3.47;;
5650;SDS011;40241;52.684;9.758;2023-11-19T09:57:40;20.87;;;4.17;;
5650;SDS011;40241;52.684;9.758;2023-11-19T10:00:09;13.77;;;3.77;;
5650;SDS011;40241;52.684;9.758;2023-11-19T10:02:36;14.40;;;3.60;;
5650;SDS011;40241;52.684;9.758;2023-11-19T10:05:04;11.30;;;4.07;;
5650;SDS011;40241;52.684;9.758;2023-11-19T10:07:31;11.77;;;2.77;;
5650;SDS011;40241;52.684;9.758;2023-11-19T10:10:00;10.97;;;2.63;;
5650;SDS011;40241;52.684;9.758;2023-11-19T10:12:29;11.23;;;1.77;;
5650;SDS011;40241;52.684;9.758;2023-11-19T10:14:56;6.00;;;2.20;;
5650;SDS011;40241;52.684;9.758;2023-11-19T10:17:24;11.63;;;2.20;;
5650;SDS011;40241;52.684;9.758;2023-11-19T10:20:01;12.50;;;2.20;;
5650;SDS011;40241;52.684;9.758;2023-11-19T10:22:27;14.53;;;3.30;;
5650;SDS011;40241;52.684;9.758;2023-11-19T10:24:53;10.30;;;2.90;;
5650;SDS011;40241;52.684;9.758;2023-11-19T10:27:18;13.03;;;2.90;;
5650;SDS011;40241;52.684;9.758;2023-11-19T10:29:47;13.43;;;3.23;;
5650;SDS011;40241;52.684;9.758;2023-11-19T10:32:14;10.27;;;2.60;;
5650;SDS011;40241;52.684;9.758;2023-11-19T10:34:42;15.77;;;3.50;;
5650;SDS011;40241;52.684;9.758;2023-11-19T10:37:08;13.27;;;3.60;;
5650;SDS011;40241;52.684;9.758;2023-11-19T10:39:52;15.57;;;3.43;;
5650;SDS011;40241;52.684;9.758;2023-11-19T10:42:22;20.10;;;3.73;;
5650;SDS011;40241;52.684;9.758;2023-11-19T10:44:47;19.10;;;2.90;;
5650;SDS011;40241;52.684;9.758;2023-11-19T10:47:13;11.70;;;3.10;;
5650;SDS011;40241;52.684;9.758;2023-11-19T10:49:40;16.77;;;3.60;;
5650;SDS011;40241;52.684;9.758;2023-11-19T10:52:05;18.07;;;3.63;;
5650;SDS011;40241;52.684;9.758;2023-11-19T10:54:34;18.57;;;3.43;;
5650;SDS011;40241;52.684;9.758;2023-11-19T10:56:59;10.67;;;3.13;;
5650;SDS011;40241;52.684;9.758;2023-11-19T10:59:28;14.87;;;3.00;;
5650;SDS011;40241;52.684;9.758;2023-11-19T11:01:55;14.13;;;3.40;;
5650;SDS011;40241;52.684;9.758;2023-11-19T11:04:25;16.60;;;3.53;;
5650;SDS011;40241;52.684;9.758;2023-11-19T11:06:54;20.33;;;4.10;;
5650;SDS011;40241;52.684;9.758;2023-11-19T11:09:20;12.63;;;3.90;;
5650;SDS011;40241;52.684;9.758;2023-11-19T11:11:46;17.77;;;3.63;;
5650;SDS011;40241;52.684;9.758;2023-11-19T11:14:12;14.37;;;3.90;;
5650;SDS011;40241;52.684;9.758;2023-11-19T11:16:44;11.87;;;3.47;;
5650;SDS011;40241;52.684;9.758;2023-11-19T11:19:11;16.60;;;4.00;;
5650;SDS011;40241;52.684;9.758;2023-11-19T11:21:38;13.60;;;3.50;;
5650;SDS011;40241;52.684;9.758;2023-11-19T11:38:00;14.70;;;3.20;;
5650;SDS011;40241;52.684;9.758;2023-11-19T11:40:33;12.27;;;3.00;;
5650;SDS011;40241;52.684;9.758;2023-11-19T11:42:59;13.07;;;3.20;;
5650;SDS011;40241;52.684;9.758;2023-11-19T11:45:40;13.20;;;2.77;;
5650;SDS011;40241;52.684;9.758;2023-11-19T11:48:17;21.37;;;3.73;;
5650;SDS011;40241;52.684;9.758;2023-11-19T11:50:52;19.43;;;3.40;;
5650;SDS011;40241;52.684;9.758;2023-11-19T11:53:20;16.50;;;3.43;;
5650;SDS011;40241;52.684;9.758;2023-11-19T11:58:18;14.20;;;2.87;;
5650;SDS011;40241;52.684;9.758;2023-11-19T12:00:44;14.10;;;3.43;;
5650;SDS011;40241;52.684;9.758;2023-11-19T12:03:12;19.43;;;3.27;;
5650;SDS011;40241;52.684;9.758;2023-11-19T12:05:41;15.47;;;3.47;;
5650;SDS011;40241;52.684;9.758;2023-11-19T12:08:07;11.40;;;2.90;;
5650;SDS011;40241;52.684;9.758;2023-11-19T12:10:37;15.83;;;3.57;;
5650;SDS011;40241;52.684;9.758;2023-11-19T12:13:12;15.03;;;3.17;;
5650;SDS011;40241;52.684;9.758;2023-11-19T12:18:29;16.10;;;3.33;;
5650;SDS011;40241;52.684;9.758;2023-11-19T12:20:59;12.03;;;3.43;;
5650;SDS011;40241;52.684;9.758;2023-11-19T12:23:31;16.00;;;3.60;;
5650;SDS011;40241;52.684;9.758;2023-11-19T12:25:57;11.93;;;3.50;;
5650;SDS011;40241;52.684;9.758;2023-11-19T12:28:23;11.13;;;2.87;;
5650;SDS011;40241;52.684;9.758;2023-11-19T12:30:51;14.37;;;3.27;;
5650;SDS011;40241;52.684;9.758;2023-11-19T12:33:18;16.07;;;3.63;;
5650;SDS011;40241;52.684;9.758;2023-11-19T12:35:45;9.50;;;2.60;;
5650;SDS011;40241;52.684;9.758;2023-11-19T12:40:46;16.80;;;3.33;;
5650;SDS011;40241;52.684;9.758;2023-11-19T12:43:11;11.70;;;3.20;;
5650;SDS011;40241;52.684;9.758;2023-11-19T12:45:46;16.10;;;2.90;;
5650;SDS011;40241;52.684;9.758;2023-11-19T12:48:11;8.07;;;2.73;;
5650;SDS011;40241;52.684;9.758;2023-11-19T12:50:53;10.83;;;2.60;;
5650;SDS011;40241;52.684;9.758;2023-11-19T12:53:20;20.40;;;3.70;;
5650;SDS011;40241;52.684;9.758;2023-11-19T12:55:46;13.10;;;3.50;;
5650;SDS011;40241;52.684;9.758;2023-11-19T12:58:27;12.50;;;3.40;;
5650;SDS011;40241;52.684;9.758;2023-11-19T13:01:05;15.30;;;3.10;;
5650;SDS011;40241;52.684;9.758;2023-11-19T13:03:32;13.77;;;3.30;;
5650;SDS011;40241;52.684;9.758;2023-11-19T13:06:06;14.00;;;3.67;;
5650;SDS011;40241;52.684;9.758;2023-11-19T13:08:43;14.10;;;3.00;;
5650;SDS011;40241;52.684;9.758;2023-11-19T13:11:33;8.80;;;2.90;;
5650;SDS011;40241;52.684;9.758;2023-11-19T13:14:01;11.80;;;3.30;;
5650;SDS011;40241;52.684;9.758;2023-11-19T13:16:29;13.27;;;2.70;;
5650;SDS011;40241;52.684;9.758;2023-11-19T13:18:56;12.87;;;2.87;;
5650;SDS011;40241;52.684;9.758;2023-11-19T13:21:22;7.90;;;2.60;;
5650;SDS011;40241;52.684;9.758;2023-11-19T13:23:49;16.40;;;3.80;;
5650;SDS011;40241;52.684;9.758;2023-11-19T13:26:15;12.33;;;3.03;;
5650;SDS011;40241;52.684;9.758;2023-11-19T13:28:40;11.63;;;2.53;;
5650;SDS011;40241;52.684;9.758;2023-11-19T13:31:06;9.70;;;3.20;;
5650;SDS011;40241;52.684;9.758;2023-11-19T13:33:32;12.00;;;4.20;;
5650;SDS011;40241;52.684;9.758;2023-11-19T13:35:58;12.47;;;3.43;;
5650;SDS011;40241;52.684;9.758;2023-11-19T13:38:24;14.10;;;3.37;;
5650;SDS011;40241;52.684;9.758;2023-11-19T13:40:50;13.33;;;2.90;;
5650;SDS011;40241;52.684;9.758;2023-11-19T13:43:16;18.70;;;3.13;;
5650;SDS011;40241;52.684;9.758;2023-11-19T13:45:41;16.30;;;3.33;;
5650;SDS011;40241;52.684;9.758;2023-11-19T13:48:07;14.07;;;3.63;;
5650;SDS011;40241;52.684;9.758;2023-11-19T13:50:32;10.67;;;3.30;;
5650;SDS011;40241;52.684;9.758;2023-11-19T13:52:59;12.33;;;2.23;;
5650;SDS011;40241;52.684;9.758;2023-11-19T13:55:25;15.07;;;2.53;;
5650;SDS011;40241;52.684;9.758;2023-11-19T13:57:50;13.50;;;3.03;;
5650;SDS011;40241;52.684;9.758;2023-11-19T14:00:16;15.93;;;2.70;;
5650;SDS011;40241;52.684;9.758;2023-11-19T14:02:45;14.40;;;3.60;;
5650;SDS011;40241;52.684;9.758;2023-11-19T14:05:15;9.80;;;2.53;;
5650;SDS011;40241;52.684;9.758;2023-11-19T14:07:42;11.50;;;2.40;;
5650;SDS011;40241;52.684;9.758;2023-11-19T14:10:08;8.73;;;2.57;;
5650;SDS011;40241;52.684;9.758;2023-11-19T14:12:36;10.70;;;3.33;;
5650;SDS011;40241;52.684;9.758;2023-11-19T14:15:02;12.53;;;3.13;;
5650;SDS011;40241;52.684;9.758;2023-11-19T14:17:30;10.70;;;2.97;;
5650;SDS011;40241;52.684;9.758;2023-11-19T14:19:56;14.10;;;3.00;;
5650;SDS011;40241;52.684;9.758;2023-11-19T14:22:21;11.80;;;3.20;;
5650;SDS011;40241;52.684;9.758;2023-11-19T14:24:47;8.87;;;2.63;;
5650;SDS011;40241;52.684;9.758;2023-11-19T14:27:12;14.93;;;2.90;;
5650;SDS011;40241;52.684;9.758;2023-11-19T14:29:37;14.03;;;3.37;;
5650;SDS011;40241;52.684;9.758;2023-11-19T14:32:03;15.20;;;3.60;;
5650;SDS011;40241;52.684;9.758;2023-11-19T14:34:29;12.90;;;2.87;;
5650;SDS011;40241;52.684;9.758;2023-11-19T14:36:55;16.37;;;3.13;;
5650;SDS011;40241;52.684;9.758;2023-11-19T14:39:21;16.93;;;3.80;;
5650;SDS011;40241;52.684;9.758;2023-11-19T14:41:46;15.30;;;3.10;;
5650;SDS011;40241;52.684;9.758;2023-11-19T14:44:12;16.27;;;3.33;;
5650;SDS011;40241;52.684;9.758;2023-11-19T14:46:37;16.40;;;3.03;;
5650;SDS011;40241;52.684;9.758;2023-11-19T14:49:03;12.10;;;3.67;;
5650;SDS011;40241;52.684;9.758;2023-11-19T14:51:35;17.63;;;3.50;;
5650;SDS011;40241;52.684;9.758;2023-11-19T14:54:01;12.17;;;3.47;;
5650;SDS011;40241;52.684;9.758;2023-11-19T14:56:26;16.47;;;4.43;;
5650;SDS011;40241;52.684;9.758;2023-11-19T14:58:52;16.00;;;4.37;;
5650;SDS011;40241;52.684;9.758;2023-11-19T15:01:17;16.37;;;3.70;;
5650;SDS011;40241;52.684;9.758;2023-11-19T15:03:44;13.90;;;3.53;;
5650;SDS011;40241;52.684;9.758;2023-11-19T15:06:09;9.80;;;2.33;;
5650;SDS011;40241;52.684;9.758;2023-11-19T15:08:36;6.20;;;2.30;;
5650;SDS011;40241;52.684;9.758;2023-11-19T15:11:02;11.13;;;2.03;;
5650;SDS011;40241;52.684;9.758;2023-11-19T15:13:29;8.70;;;2.03;;
5650;SDS011;40241;52.684;9.758;2023-11-19T15:15:55;8.03;;;1.73;;